Time;durP1;ratioP1;P1;durP2;ratioP2;P2;SDS_P1;SDS_P2;PMS_P1;PMS_P2;Temp;Humidity;BMP_temperature;BMP_pressure;BME280_temperature;BME280_humidity;BME280_pressure;Samples;Min_cycle;Max_cycle;Signal;HPM_P1;HPM_P2
2022/10/18 00:01:31;;;;;;;0.68;0.68;;;;;;;3.67;62.72;94974.84;5070017;28;20020;-33
2022/10/18 00:03:56;;;;;;;0.32;0.32;;;;;;;3.47;63.36;94977.41;5063140;28;20017;-33
2022/10/18 00:06:21;;;;;;;0.30;0.30;;;;;;;3.40;63.44;94967.59;5063046;28;20069;-33
2022/10/18 00:08:47;;;;;;;1.25;1.23;;;;;;;3.53;63.09;94973.56;5067771;28;20496;-33
2022/10/18 00:11:12;;;;;;;0.57;0.57;;;;;;;3.37;63.75;94967.78;5070943;28;20055;-33
2022/10/18 00:13:38;;;;;;;0.70;0.70;;;;;;;3.48;63.06;94946.16;5070981;28;20020;-33
2022/10/18 00:16:05;;;;;;;0.47;0.47;;;;;;;3.37;63.15;94956.84;5064899;28;20028;-33
2022/10/18 00:18:30;;;;;;;0.40;0.40;;;;;;;3.54;62.92;94947.03;5038803;28;20025;-33
2022/10/18 00:21:03;;;;;;;0.93;0.93;;;;;;;3.37;63.69;94948.66;5066727;28;20157;-33
2022/10/18 00:23:29;;;;;;;1.52;1.42;;;;;;;3.34;63.08;94941.41;5062289;28;20029;-33
2022/10/18 00:26:06;;;;;;;0.40;0.40;;;;;;;3.28;61.95;94944.03;5068096;28;20025;-33
2022/10/18 00:28:32;;;;;;;4.90;2.25;;;;;;;3.24;61.97;94940.72;5066072;28;20081;-33
2022/10/18 00:31:09;;;;;;;0.55;0.55;;;;;;;2.67;63.18;94936.47;5063595;28;20024;-33
2022/10/18 00:33:35;;;;;;;0.50;0.50;;;;;;;2.39;64.25;94933.13;5065127;28;20414;-33
2022/10/18 00:36:00;;;;;;;1.38;1.33;;;;;;;2.40;65.35;94909.34;5057134;28;20111;-33
2022/10/18 00:38:26;;;;;;;0.40;0.40;;;;;;;2.42;64.99;94931.44;5064678;28;20035;-33
2022/10/18 00:40:51;;;;;;;0.40;0.40;;;;;;;2.78;64.13;94925.81;5066124;28;20515;-33
2022/10/18 00:43:17;;;;;;;0.63;0.63;;;;;;;2.76;64.09;94931.75;5069940;28;20077;-33
2022/10/18 00:45:43;;;;;;;1.00;0.90;;;;;;;2.94;63.11;94925.44;5068214;28;20474;-33
2022/10/18 00:48:09;;;;;;;1.45;1.35;;;;;;;2.88;63.61;94924.56;5068585;28;20021;-33
2022/10/18 00:50:35;;;;;;;0.88;0.82;;;;;;;2.73;63.82;94915.56;5065840;28;20045;-33
2022/10/18 00:53:02;;;;;;;0.60;0.60;;;;;;;2.72;63.93;94917.53;5068147;28;20020;-33
2022/10/18 00:55:30;;;;;;;1.67;1.58;;;;;;;2.69;63.09;94914.97;5068275;28;20554;-33
2022/10/18 00:57:56;;;;;;;1.05;1.05;;;;;;;2.63;63.08;94912.13;5069599;28;20048;-33
2022/10/18 01:00:22;;;;;;;0.65;0.65;;;;;;;2.90;62.70;94892.88;5049911;28;20024;-33
2022/10/18 01:02:47;;;;;;;0.30;0.30;;;;;;;2.85;62.46;94911.84;5070317;28;20013;-33
2022/10/18 01:05:14;;;;;;;0.50;0.50;;;;;;;2.71;63.36;94902.38;5052032;28;20135;-33
2022/10/18 01:08:38;;;;;;;0.20;0.20;;;;;;;2.49;64.30;94898.41;5070289;28;20097;-33
2022/10/18 01:11:32;;;;;;;2.50;1.85;;;;;;;2.46;64.21;94900.09;5025809;28;20032;-33
2022/10/18 01:14:16;;;;;;;0.90;0.90;;;;;;;2.40;64.01;94898.44;5051002;28;20105;-33
2022/10/18 01:16:56;;;;;;;0.35;0.35;;;;;;;2.45;63.65;94898.56;5063718;28;20035;-33
2022/10/18 01:19:39;;;;;;;0.25;0.25;;;;;;;2.16;64.02;94901.09;5045992;28;20021;-33
2022/10/18 01:22:19;;;;;;;0.30;0.30;;;;;;;2.09;64.84;94896.75;5060674;28;20063;-32
2022/10/18 01:24:57;;;;;;;0.30;0.30;;;;;;;2.41;64.52;94899.94;5051770;28;20070;-33
2022/10/18 01:27:34;;;;;;;0.50;0.50;;;;;;;2.32;64.65;94891.81;5069816;28;20032;-33
2022/10/18 01:30:21;;;;;;;1.45;1.20;;;;;;;2.39;64.56;94881.34;5052226;28;20404;-33
2022/10/18 01:32:49;;;;;;;0.40;0.40;;;;;;;2.40;64.58;94882.09;5064534;28;20029;-33
2022/10/18 01:35:19;;;;;;;0.30;0.30;;;;;;;2.30;64.53;94879.41;5050599;28;20029;-33
2022/10/18 01:37:47;;;;;;;0.90;0.90;;;;;;;2.47;63.88;94873.59;5050924;28;20036;-33
2022/10/18 01:40:17;;;;;;;0.60;0.60;;;;;;;2.52;63.29;94873.69;5065492;28;20158;-33
2022/10/18 01:42:43;;;;;;;0.20;0.20;;;;;;;2.47;64.07;94879.78;5049239;28;20017;-33
2022/10/18 01:45:10;;;;;;;0.88;0.77;;;;;;;2.44;62.98;94871.78;5033613;28;20024;-33
2022/10/18 01:47:35;;;;;;;0.47;0.47;;;;;;;2.46;63.69;94874.78;5051822;28;20052;-33
2022/10/18 01:50:04;;;;;;;0.30;0.30;;;;;;;2.27;62.87;94863.22;5060760;28;20057;-33
2022/10/18 01:52:29;;;;;;;0.40;0.40;;;;;;;2.16;63.88;94871.91;5059017;28;20033;-33
2022/10/18 01:54:56;;;;;;;1.13;0.47;;;;;;;1.93;64.81;94839.88;5069639;28;20017;-33
2022/10/18 01:58:03;;;;;;;1.33;1.33;;;;;;;2.00;64.31;94869.53;5051791;28;20023;-33
2022/10/18 02:00:36;;;;;;;0.32;0.32;;;;;;;2.21;62.90;94870.50;4951753;28;20032;-33
2022/10/18 02:03:17;;;;;;;0.30;0.30;;;;;;;2.21;62.86;94868.53;4949330;29;20039;-33
2022/10/18 02:05:51;;;;;;;0.60;0.60;;;;;;;1.97;63.95;94873.16;5025390;28;20059;-32
2022/10/18 02:08:25;;;;;;;0.45;0.45;;;;;;;1.88;63.87;94875.16;5048737;28;20078;-33
2022/10/18 02:11:11;;;;;;;1.45;1.38;;;;;;;2.14;63.18;94876.28;5069482;28;20017;-33
2022/10/18 02:13:49;;;;;;;1.58;1.33;;;;;;;2.18;62.46;94876.88;5051590;28;20416;-32
2022/10/18 02:16:23;;;;;;;0.75;0.75;;;;;;;2.18;63.35;94874.16;5055619;28;20098;-32
2022/10/18 02:19:01;;;;;;;0.30;0.30;;;;;;;2.18;63.73;94874.16;5055308;28;20031;-33
2022/10/18 02:21:27;;;;;;;0.40;0.40;;;;;;;1.93;63.98;94869.06;5073126;28;20161;-32
2022/10/18 02:23:53;;;;;;;0.30;0.30;;;;;;;1.88;63.71;94865.03;5051381;28;20077;-33
2022/10/18 02:26:19;;;;;;;0.30;0.30;;;;;;;1.85;63.77;94867.91;5054078;28;20111;-33
2022/10/18 02:28:44;;;;;;;0.20;0.20;;;;;;;1.68;63.95;94864.00;5055044;28;20032;-33
2022/10/18 02:31:39;;;;;;;0.25;0.25;;;;;;;1.52;64.00;94857.69;5072865;28;20032;-33
2022/10/18 02:34:20;;;;;;;0.82;0.82;;;;;;;1.46;64.69;94862.22;5054976;28;20036;-33
2022/10/18 02:37:04;;;;;;;0.30;0.30;;;;;;;1.57;64.89;94866.44;5051230;28;20469;-32
2022/10/18 02:39:29;;;;;;;1.05;0.63;;;;;;;1.81;64.04;94868.06;5070315;28;20028;-33
2022/10/18 02:41:56;;;;;;;0.70;0.70;;;;;;;1.90;63.43;94867.28;5054475;28;20575;-33
2022/10/18 02:44:21;;;;;;;0.50;0.50;;;;;;;2.00;63.57;94864.06;5072958;28;20031;-32
2022/10/18 02:46:47;;;;;;;0.43;0.43;;;;;;;2.03;63.58;94862.41;5072666;28;20407;-33
2022/10/18 02:49:12;;;;;;;1.20;1.20;;;;;;;1.73;63.97;94868.84;5071232;28;20020;-33
2022/10/18 02:51:38;;;;;;;1.38;1.27;;;;;;;1.20;65.90;94865.72;5070873;28;20162;-33
2022/10/18 02:54:03;;;;;;;1.75;1.52;;;;;;;1.58;64.95;94866.00;5072673;28;20028;-33
2022/10/18 02:56:29;;;;;;;1.00;1.00;;;;;;;1.32;64.23;94851.22;5065372;28;20474;-33
2022/10/18 02:58:54;;;;;;;0.30;0.30;;;;;;;1.47;64.64;94871.16;5072699;28;20013;-33
2022/10/18 03:01:20;;;;;;;0.20;0.20;;;;;;;1.47;64.15;94863.00;5068744;28;20047;-33
2022/10/18 03:03:45;;;;;;;1.08;1.08;;;;;;;1.43;63.61;94852.25;5072485;28;20017;-33
2022/10/18 03:06:11;;;;;;;0.95;0.95;;;;;;;1.35;63.89;94867.38;5072155;28;20043;-32
2022/10/18 03:08:36;;;;;;;0.28;0.28;;;;;;;1.59;64.14;94867.50;5070209;28;20029;-32
2022/10/18 03:11:02;;;;;;;0.70;0.70;;;;;;;1.52;64.16;94867.81;5071938;28;20073;-33
2022/10/18 03:13:27;;;;;;;0.47;0.47;;;;;;;1.29;64.40;94863.75;5065300;28;20028;-33
2022/10/18 03:15:53;;;;;;;0.30;0.30;;;;;;;1.35;63.90;94863.91;5072472;28;20504;-34
2022/10/18 03:18:18;;;;;;;0.28;0.28;;;;;;;1.39;64.02;94875.38;5072114;28;20462;-33
2022/10/18 03:20:44;;;;;;;0.50;0.50;;;;;;;1.48;63.16;94878.09;5071824;28;20032;-32
2022/10/18 03:23:09;;;;;;;1.70;1.60;;;;;;;1.20;64.08;94871.94;5071387;28;20048;-33
2022/10/18 03:25:35;;;;;;;1.30;1.30;;;;;;;1.19;64.50;94875.84;5066126;28;20166;-33
2022/10/18 03:28:00;;;;;;;0.32;0.32;;;;;;;1.28;64.22;94864.97;5071314;28;20027;-33
2022/10/18 03:30:26;;;;;;;1.20;1.20;;;;;;;1.17;64.63;94861.94;5071966;28;20074;-33
2022/10/18 03:32:53;;;;;;;0.40;0.40;;;;;;;1.27;65.51;94860.75;5062390;28;20025;-33
2022/10/18 03:35:18;;;;;;;1.40;0.95;;;;;;;1.46;64.50;94864.97;5069917;28;20025;-33
2022/10/18 03:37:44;;;;;;;0.30;0.30;;;;;;;1.43;63.96;94868.56;5067850;28;20048;-33
2022/10/18 03:40:09;;;;;;;1.38;1.38;;;;;;;1.39;64.27;94876.13;5069150;28;20024;-33
2022/10/18 03:42:35;;;;;;;1.00;1.00;;;;;;;1.20;64.57;94873.88;5071582;28;20078;-33
2022/10/18 03:45:00;;;;;;;0.35;0.35;;;;;;;1.34;64.12;94870.56;5071304;28;20024;-33
2022/10/18 03:47:26;;;;;;;0.45;0.45;;;;;;;1.51;64.04;94871.75;5071701;28;20028;-33
2022/10/18 03:49:51;;;;;;;0.20;0.20;;;;;;;1.42;64.37;94875.25;5071467;28;20024;-35
2022/10/18 03:52:17;;;;;;;5.93;2.70;;;;;;;1.27;64.71;94876.31;5070929;28;20090;-33
2022/10/18 03:54:42;;;;;;;0.60;0.60;;;;;;;1.13;65.34;94874.94;5068258;28;20040;-33
2022/10/18 03:57:08;;;;;;;1.25;1.15;;;;;;;0.67;65.45;94871.41;5064168;28;20050;-33
2022/10/18 03:59:33;;;;;;;0.95;0.95;;;;;;;0.86;64.40;94880.38;5071750;28;20070;-33
2022/10/18 04:01:58;;;;;;;1.02;1.02;;;;;;;0.83;64.71;94886.69;5064565;28;20485;-32
2022/10/18 04:04:24;;;;;;;0.77;0.77;;;;;;;0.92;63.76;94884.00;5071343;28;20032;-33
2022/10/18 04:06:49;;;;;;;0.43;0.43;;;;;;;0.94;63.84;94878.84;5071246;28;20404;-33
2022/10/18 04:09:15;;;;;;;0.55;0.55;;;;;;;0.89;64.26;94876.00;5070890;28;20101;-33
2022/10/18 04:11:40;;;;;;;1.05;1.05;;;;;;;0.86;64.81;94880.38;5049437;28;20041;-33
2022/10/18 04:14:05;;;;;;;0.52;0.52;;;;;;;0.79;64.60;94891.53;5068891;28;20024;-33
2022/10/18 04:16:31;;;;;;;0.85;0.85;;;;;;;0.91;63.66;94877.03;5070810;28;20027;-32
2022/10/18 04:18:56;;;;;;;0.47;0.47;;;;;;;0.74;63.70;94881.25;5068689;28;20040;-33
2022/10/18 04:21:22;;;;;;;3.42;1.50;;;;;;;0.74;64.87;94879.28;5066099;28;20024;-33
2022/10/18 04:23:48;;;;;;;2.08;1.95;;;;;;;0.68;64.15;94870.22;5063194;28;20027;-33
2022/10/18 04:26:15;;;;;;;1.00;1.00;;;;;;;0.76;64.09;94881.53;5070281;28;20020;-33
2022/10/18 04:28:41;;;;;;;1.33;0.80;;;;;;;0.91;62.60;94871.59;5070452;28;20562;-32
2022/10/18 04:31:06;;;;;;;2.65;1.63;;;;;;;0.84;63.46;94871.91;5071058;28;20024;-33
2022/10/18 04:33:32;;;;;;;1.85;1.75;;;;;;;0.67;64.00;94873.41;5069378;28;20016;-35
2022/10/18 04:35:57;;;;;;;1.27;1.27;;;;;;;0.47;64.72;94870.31;5070634;28;20028;-33
2022/10/18 04:38:23;;;;;;;0.30;0.30;;;;;;;0.67;64.56;94867.97;5070567;28;20519;-32
2022/10/18 04:40:48;;;;;;;1.85;1.55;;;;;;;0.75;63.85;94871.91;5070693;28;20503;-33
2022/10/18 04:43:14;;;;;;;0.77;0.77;;;;;;;0.44;64.54;94860.34;5065710;28;20482;-35
2022/10/18 04:45:40;;;;;;;2.45;2.25;;;;;;;0.65;64.94;94860.25;5069898;28;20024;-34
2022/10/18 04:48:05;;;;;;;0.88;0.88;;;;;;;0.66;64.53;94863.72;5066120;28;20020;-35
2022/10/18 04:50:31;;;;;;;0.90;0.82;;;;;;;0.53;64.12;94868.53;5069538;28;20091;-33
2022/10/18 04:52:56;;;;;;;1.00;0.98;;;;;;;0.74;64.24;94870.38;5068500;28;20488;-35
2022/10/18 04:55:22;;;;;;;1.77;1.67;;;;;;;0.48;64.60;94861.72;5070345;28;20028;-35
2022/10/18 04:57:47;;;;;;;1.20;1.20;;;;;;;0.55;64.68;94860.66;5069215;28;20016;-33
2022/10/18 05:00:13;;;;;;;1.38;1.27;;;;;;;0.30;64.61;94860.91;5062516;28;20046;-34
2022/10/18 05:02:38;;;;;;;1.05;1.05;;;;;;;0.56;64.62;94862.94;5070411;28;20116;-35
2022/10/18 05:05:04;;;;;;;1.35;1.35;;;;;;;0.59;63.55;94839.53;5070272;28;20016;-35
2022/10/18 05:07:30;;;;;;;6.18;2.38;;;;;;;0.77;63.90;94866.75;5062421;28;20421;-35
2022/10/18 05:09:55;;;;;;;0.43;0.43;;;;;;;0.54;64.69;94865.34;5070450;28;20408;-35
2022/10/18 05:12:21;;;;;;;0.40;0.40;;;;;;;0.45;64.83;94861.88;5062949;28;20488;-35
2022/10/18 05:14:47;;;;;;;2.38;1.10;;;;;;;0.23;64.02;94845.66;5063920;28;20420;-35
2022/10/18 05:17:12;;;;;;;2.25;2.10;;;;;;;0.30;64.26;94860.91;5069889;28;20484;-35
2022/10/18 05:19:38;;;;;;;0.50;0.50;;;;;;;0.42;63.77;94858.09;5069388;28;20016;-34
2022/10/18 05:22:03;;;;;;;2.38;2.28;;;;;;;0.13;64.58;94848.78;5069958;28;20020;-35
2022/10/18 05:24:29;;;;;;;2.35;2.25;;;;;;;0.19;65.04;94850.47;5067758;28;20015;-35
2022/10/18 05:26:54;;;;;;;2.92;2.75;;;;;;;0.45;64.44;94845.56;5065727;28;20025;-35
2022/10/18 05:29:20;;;;;;;1.75;1.65;;;;;;;0.53;64.74;94854.94;5069419;28;20028;-34
2022/10/18 05:31:47;;;;;;;1.90;1.80;;;;;;;0.64;64.15;94855.25;5062068;28;20020;-35
2022/10/18 05:34:12;;;;;;;2.28;2.10;;;;;;;0.74;63.90;94846.66;5069987;28;20029;-33
2022/10/18 05:36:38;;;;;;;4.22;4.03;;;;;;;0.78;63.72;94839.13;5066212;28;20047;-35
2022/10/18 05:39:04;;;;;;;2.83;2.70;;;;;;;0.70;63.99;94842.56;5062242;28;20028;-34
2022/10/18 05:41:30;;;;;;;9.02;8.35;;;;;;;0.70;64.71;94848.00;5070070;28;20027;-35
2022/10/18 05:43:55;;;;;;;10.73;7.78;;;;;;;0.61;65.20;94850.72;5061171;28;20025;-35
2022/10/18 05:46:21;;;;;;;11.00;7.32;;;;;;;0.62;65.57;94854.97;5068572;28;20032;-35
2022/10/18 05:48:50;;;;;;;8.23;7.68;;;;;;;0.72;65.47;94856.47;5069253;28;20016;-35
2022/10/18 05:51:16;;;;;;;5.28;4.90;;;;;;;0.77;66.04;94845.78;5067839;28;20045;-35
2022/10/18 05:53:41;;;;;;;13.93;7.35;;;;;;;0.88;66.47;94856.19;5071937;28;20032;-35
2022/10/18 05:56:07;;;;;;;4.80;4.50;;;;;;;0.79;67.26;94834.44;5071874;28;20020;-35
2022/10/18 05:58:33;;;;;;;2.17;2.08;;;;;;;1.04;67.70;94858.63;5072745;28;20027;-35
2022/10/18 06:01:04;;;;;;;4.32;2.95;;;;;;;1.27;67.64;94855.31;5072597;28;20024;-35
2022/10/18 06:03:29;;;;;;;5.10;3.33;;;;;;;1.58;67.03;94857.09;5067849;28;20060;-35
2022/10/18 06:06:02;;;;;;;2.28;2.17;;;;;;;1.95;67.14;94845.63;5070361;28;20059;-35
2022/10/18 06:08:28;;;;;;;2.50;2.40;;;;;;;2.18;66.53;94847.69;5065308;28;20029;-35
2022/10/18 06:10:53;;;;;;;1.60;1.60;;;;;;;2.57;64.79;94845.06;5068816;28;20027;-35
2022/10/18 06:13:19;;;;;;;5.80;3.47;;;;;;;2.92;64.78;94846.06;5073637;28;20024;-35
2022/10/18 06:15:44;;;;;;;3.80;3.08;;;;;;;3.18;64.12;94855.25;5064234;28;20016;-35
2022/10/18 06:18:10;;;;;;;2.92;2.75;;;;;;;3.42;63.53;94855.22;5068852;28;20020;-35
2022/10/18 06:20:35;;;;;;;2.00;1.90;;;;;;;3.63;63.30;94854.09;5049769;28;20087;-35
2022/10/18 06:23:00;;;;;;;4.53;2.85;;;;;;;3.80;63.48;94855.16;5068157;28;20034;-35
2022/10/18 06:25:26;;;;;;;4.88;3.95;;;;;;;4.05;63.13;94821.03;5070839;28;20017;-35
2022/10/18 06:27:51;;;;;;;4.70;4.30;;;;;;;4.85;61.83;94840.31;5068652;28;20023;-35
2022/10/18 06:30:17;;;;;;;3.78;3.47;;;;;;;5.98;59.61;94841.84;5072995;28;20032;-34
2022/10/18 06:32:42;;;;;;;2.13;1.95;;;;;;;7.21;56.14;94847.66;5067939;28;20036;-33
2022/10/18 06:35:08;;;;;;;1.45;1.42;;;;;;;8.81;53.31;94836.16;5060753;28;20021;-33
2022/10/18 06:37:34;;;;;;;4.57;2.75;;;;;;;10.45;48.96;94832.31;5068184;28;20082;-33
2022/10/18 06:39:59;;;;;;;3.22;2.65;;;;;;;11.72;45.57;94829.47;5066957;28;20028;-33
2022/10/18 06:42:25;;;;;;;1.90;1.80;;;;;;;12.89;43.41;94829.19;5070487;28;20024;-33
2022/10/18 06:44:50;;;;;;;3.60;1.88;;;;;;;14.10;40.68;94828.81;5068315;28;20025;-33
2022/10/18 06:47:15;;;;;;;1.60;1.50;;;;;;;15.31;38.50;94827.13;5068094;28;20431;-33
2022/10/18 06:49:41;;;;;;;1.95;1.85;;;;;;;16.44;36.53;94836.00;5067704;28;20033;-33
2022/10/18 06:52:06;;;;;;;5.45;2.40;;;;;;;17.41;34.65;94831.81;5067631;28;20053;-33
2022/10/18 06:54:32;;;;;;;1.65;1.55;;;;;;;18.33;33.20;94824.66;5064246;28;20150;-33
2022/10/18 06:56:58;;;;;;;0.80;0.80;;;;;;;19.03;32.59;94832.06;5070056;28;20400;-33
2022/10/18 06:59:23;;;;;;;2.58;1.98;;;;;;;19.74;31.12;94819.84;5067511;28;20044;-33
2022/10/18 07:01:49;;;;;;;2.00;1.35;;;;;;;20.13;29.99;94824.47;5069638;28;20515;-33
2022/10/18 07:04:14;;;;;;;2.25;2.15;;;;;;;20.04;30.58;94821.56;5061788;28;20024;-34
2022/10/18 07:06:40;;;;;;;1.23;1.13;;;;;;;20.20;30.22;94820.84;5070781;28;20012;-34
2022/10/18 07:09:05;;;;;;;1.52;1.25;;;;;;;20.70;29.78;94814.94;5065395;28;20028;-33
2022/10/18 07:11:31;;;;;;;5.22;3.65;;;;;;;20.73;29.97;94820.13;5063405;28;20032;-33
2022/10/18 07:14:01;;;;;;;4.63;3.38;;;;;;;20.75;29.56;94816.72;5072295;28;20052;-33
2022/10/18 07:16:28;;;;;;;1.67;1.52;;;;;;;20.89;29.42;94815.03;5058187;28;20025;-33
2022/10/18 07:18:53;;;;;;;3.55;2.80;;;;;;;20.41;30.05;94817.59;5071217;28;20149;-34
2022/10/18 07:21:20;;;;;;;4.30;2.17;;;;;;;20.85;30.24;94815.47;5064979;28;20420;-33
2022/10/18 07:23:46;;;;;;;0.85;0.85;;;;;;;21.12;30.12;94804.97;5056957;28;20029;-33
2022/10/18 07:26:17;;;;;;;0.98;0.95;;;;;;;21.05;30.89;94808.63;5057972;28;20568;-33
2022/10/18 07:28:46;;;;;;;1.88;1.48;;;;;;;20.93;30.63;94806.91;5050288;28;20032;-33
2022/10/18 07:31:12;;;;;;;1.70;1.38;;;;;;;19.90;32.42;94807.19;5064677;28;20044;-33
2022/10/18 07:33:38;;;;;;;1.65;1.55;;;;;;;19.65;33.63;94804.44;5067163;28;20291;-33
2022/10/18 07:36:05;;;;;;;2.13;1.63;;;;;;;19.91;32.42;94805.09;5062938;28;20025;-33
2022/10/18 07:38:31;;;;;;;2.33;2.13;;;;;;;19.62;32.85;94793.66;5064234;28;20585;-33
2022/10/18 07:40:57;;;;;;;1.65;1.27;;;;;;;19.90;33.11;94795.97;5065114;28;20112;-33
2022/10/18 07:43:23;;;;;;;1.48;1.00;;;;;;;20.36;31.75;94788.47;5061568;28;20035;-33
2022/10/18 07:46:00;;;;;;;0.20;0.20;;;;;;;20.40;30.76;94782.44;5059719;28;20424;-33
2022/10/18 07:48:26;;;;;;;1.05;0.73;;;;;;;20.51;30.50;94781.19;5071035;28;20025;-33
2022/10/18 07:50:52;;;;;;;0.35;0.35;;;;;;;20.51;30.48;94779.09;5054554;28;20076;-34
2022/10/18 07:53:17;;;;;;;8.05;1.55;;;;;;;20.52;30.17;94774.22;5066256;28;20032;-33
2022/10/18 07:55:43;;;;;;;0.20;0.20;;;;;;;20.90;29.80;94777.94;5066903;28;20021;-34
2022/10/18 07:58:09;;;;;;;1.90;1.25;;;;;;;21.22;29.92;94768.47;5067652;28;20025;-33
2022/10/18 08:00:35;;;;;;;7.57;1.05;;;;;;;20.92;29.48;94780.19;5061828;28;20024;-34
2022/10/18 08:03:00;;;;;;;0.40;0.40;;;;;;;20.65;29.76;94768.25;5069323;28;20511;-33
2022/10/18 08:05:27;;;;;;;0.73;0.60;;;;;;;20.30;30.08;94773.22;5062856;28;20112;-33
2022/10/18 08:07:53;;;;;;;0.45;0.45;;;;;;;19.98;32.08;94765.03;5069816;28;20184;-33
2022/10/18 08:10:19;;;;;;;0.80;0.60;;;;;;;20.07;30.97;94759.50;5066719;28;20021;-33
2022/10/18 08:12:44;;;;;;;0.30;0.30;;;;;;;20.41;30.50;94761.47;5060928;28;20404;-33
2022/10/18 08:15:10;;;;;;;0.43;0.43;;;;;;;20.52;30.95;94758.16;5071121;28;20029;-34
2022/10/18 08:17:36;;;;;;;0.60;0.55;;;;;;;20.85;29.73;94756.53;5064983;28;20054;-33
2022/10/18 08:20:02;;;;;;;0.70;0.70;;;;;;;20.57;29.75;94745.16;5064071;28;20032;-33
2022/10/18 08:22:28;;;;;;;0.15;0.15;;;;;;;20.57;29.84;94740.31;5069298;28;20020;-33
2022/10/18 08:24:53;;;;;;;0.38;0.38;;;;;;;20.95;29.88;94742.50;5070343;28;20016;-34
2022/10/18 08:27:19;;;;;;;3.38;0.85;;;;;;;21.03;28.76;94741.06;5064979;28;20028;-34
2022/10/18 08:29:44;;;;;;;0.47;0.47;;;;;;;21.25;30.57;94742.00;5061691;28;20021;-33
2022/10/18 08:32:10;;;;;;;0.82;0.82;;;;;;;21.42;27.97;94741.88;5069125;28;20028;-33
2022/10/18 08:34:35;;;;;;;0.20;0.20;;;;;;;21.38;29.18;94738.03;5063617;28;20025;-34
2022/10/18 08:37:01;;;;;;;0.30;0.30;;;;;;;20.75;29.03;94726.91;5064703;28;20674;-33
2022/10/18 08:39:27;;;;;;;0.57;0.57;;;;;;;20.96;28.64;94730.66;5062899;28;20013;-33
2022/10/18 08:42:29;;;;;;;1.10;0.45;;;;;;;21.06;28.99;94739.91;5064569;28;20056;-33
2022/10/18 08:44:55;;;;;;;0.50;0.50;;;;;;;20.99;28.39;94728.75;5067219;28;20059;-33
2022/10/18 08:47:42;;;;;;;0.70;0.70;;;;;;;21.24;29.05;94726.50;5062399;28;20025;-34
2022/10/18 08:50:19;;;;;;;0.20;0.20;;;;;;;20.96;28.93;94711.03;5054266;28;20045;-33
2022/10/18 08:52:54;;;;;;;0.40;0.40;;;;;;;21.16;27.83;94714.63;5049963;28;20032;-33
2022/10/18 08:55:40;;;;;;;0.38;0.38;;;;;;;21.43;27.09;94720.16;5057034;28;20068;-33
2022/10/18 08:58:25;;;;;;;0.73;0.73;;;;;;;21.32;26.41;94704.63;5063482;28;20116;-34
2022/10/18 09:00:50;;;;;;;11.70;0.70;;;;;;;;;;5070358;28;20166;-34
2022/10/18 09:03:28;;;;;;;0.75;0.63;;;;;;;21.57;27.65;94715.59;5061524;28;20078;-33
2022/10/18 09:06:00;;;;;;;0.20;0.20;;;;;;;21.36;24.82;94713.34;5066762;28;20110;-33
2022/10/18 09:08:28;;;;;;;0.60;0.60;;;;;;;21.12;25.83;94712.28;5039409;28;20024;-33
2022/10/18 09:11:09;;;;;;;0.50;0.50;;;;;;;21.12;25.70;94709.47;5069624;28;20056;-33
2022/10/18 09:14:03;;;;;;;0.40;0.40;;;;;;;21.06;25.20;94711.81;5061425;28;20539;-34
2022/10/18 09:16:42;;;;;;;0.40;0.38;;;;;;;20.89;25.99;94713.97;5065163;28;20028;-34
2022/10/18 09:19:22;;;;;;;0.70;0.70;;;;;;;20.64;26.60;94700.13;5061781;28;20021;-34
2022/10/18 09:22:01;;;;;;;0.32;0.32;;;;;;;20.92;26.18;94710.72;5059578;28;20048;-33
2022/10/18 09:24:39;;;;;;;0.55;0.55;;;;;;;21.23;25.99;94696.16;5041131;28;20016;-33
2022/10/18 09:27:13;;;;;;;0.30;0.30;;;;;;;21.48;25.46;94705.81;5040525;28;20432;-34
2022/10/18 09:30:18;;;;;;;3.65;0.90;;;;;;;21.77;23.13;94695.28;5047199;28;20051;-34
2022/10/18 09:33:02;;;;;;;0.32;0.32;;;;;;;21.51;23.89;94701.81;5041646;28;20425;-34
2022/10/18 09:35:55;;;;;;;0.28;0.28;;;;;;;21.56;23.39;94697.22;5050189;28;20033;-34
2022/10/18 09:38:25;;;;;;;0.20;0.20;;;;;;;21.35;25.12;94692.22;5052337;28;20573;-35
2022/10/18 09:40:58;;;;;;;1.45;1.02;;;;;;;21.58;23.90;94683.31;5061980;28;20377;-34
2022/10/18 09:43:55;;;;;;;0.20;0.20;;;;;;;22.18;23.04;94693.31;5042647;28;20036;-33
2022/10/18 09:46:23;;;;;;;0.15;0.15;;;;;;;22.66;23.60;94687.56;5062378;28;20459;-34
2022/10/18 09:48:55;;;;;;;35.90;7.18;;;;;;;23.18;23.49;94682.69;5066145;28;20385;-34
2022/10/18 09:51:23;;;;;;;0.60;0.60;;;;;;;23.45;23.04;94673.91;5049405;28;20051;-33
2022/10/18 09:54:14;;;;;;;0.40;0.40;;;;;;;23.86;21.91;94678.03;5049422;28;20082;-34
2022/10/18 09:56:47;;;;;;;0.68;0.68;;;;;;;23.87;22.01;94664.63;5064825;28;20074;-33
2022/10/18 09:59:43;;;;;;;1.52;1.13;;;;;;;24.33;20.86;94666.84;5068655;28;20028;-33
2022/10/18 10:02:12;;;;;;;0.30;0.30;;;;;;;24.30;20.81;94668.81;5041475;28;20060;-33
2022/10/18 10:04:38;;;;;;;0.50;0.50;;;;;;;24.13;21.60;94655.03;5065755;28;20139;-33
2022/10/18 10:07:07;;;;;;;6.38;0.93;;;;;;;24.02;22.03;94664.94;5068176;28;20050;-33
2022/10/18 10:09:40;;;;;;;0.28;0.28;;;;;;;24.36;21.34;94648.72;5065089;28;20032;-33
2022/10/18 10:12:32;;;;;;;0.38;0.38;;;;;;;24.47;21.63;94653.63;5047143;28;20032;-33
2022/10/18 10:15:24;;;;;;;0.38;0.38;;;;;;;24.68;21.93;94636.56;5063186;28;20067;-33
2022/10/18 10:17:55;;;;;;;0.55;0.55;;;;;;;25.89;20.14;94640.84;5062425;28;20574;-34
2022/10/18 10:20:33;;;;;;;0.25;0.25;;;;;;;25.58;19.89;94627.06;5049522;28;20028;-33
2022/10/18 10:23:12;;;;;;;0.10;0.10;;;;;;;25.98;19.36;94626.53;5042491;28;20029;-33
2022/10/18 10:25:39;;;;;;;0.40;0.40;;;;;;;26.36;19.36;94616.59;5060783;28;20699;-33
2022/10/18 10:28:16;;;;;;;0.05;0.05;;;;;;;26.57;19.08;94621.25;5066500;28;20019;-33
2022/10/18 10:30:42;;;;;;;0.20;0.20;;;;;;;26.75;18.82;94619.38;5059487;28;20025;-34
2022/10/18 10:33:29;;;;;;;0.22;0.22;;;;;;;26.94;18.22;94614.03;5048568;28;20410;-34
2022/10/18 10:35:58;;;;;;;0.75;0.75;;;;;;;26.74;18.39;94610.16;5068595;28;20032;-34
2022/10/18 10:38:26;;;;;;;6.03;1.27;;;;;;;27.15;17.89;94600.91;5068152;28;20024;-33
2022/10/18 10:40:53;;;;;;;1.70;1.60;;;;;;;27.34;17.70;94587.00;5069130;28;20025;-35
2022/10/18 10:43:20;;;;;;;0.10;0.10;;;;;;;27.63;16.83;94592.72;5071427;28;20024;-34
2022/10/18 10:45:59;;;;;;;0.85;0.57;;;;;;;27.57;17.00;94588.88;5065694;28;20032;-34
2022/10/18 10:48:25;;;;;;;0.22;0.22;;;;;;;27.09;17.22;94584.31;5053453;28;20029;-33
2022/10/18 10:51:07;;;;;;;0.43;0.43;;;;;;;27.16;17.27;94583.25;5044068;28;20048;-33
2022/10/18 10:53:41;;;;;;;0.25;0.25;;;;;;;27.42;17.43;94575.31;5060391;28;20114;-33
2022/10/18 10:56:24;;;;;;;121.70;16.75;;;;;;;26.49;17.57;94579.03;5061154;28;20045;-33
2022/10/18 10:58:50;;;;;;;0.40;0.40;;;;;;;26.54;17.45;94572.25;5063589;28;20044;-33
2022/10/18 11:01:31;;;;;;;0.55;0.55;;;;;;;25.66;18.59;94568.16;5063297;28;20040;-33
2022/10/18 11:04:02;;;;;;;8.20;3.05;;;;;;;25.43;19.12;94571.81;5045160;28;20020;-33
2022/10/18 11:06:37;;;;;;;1.15;1.05;;;;;;;25.83;18.46;94564.13;5047595;28;20416;-34
2022/10/18 11:09:09;;;;;;;0.20;0.20;;;;;;;25.48;18.29;94559.38;5067263;28;20032;-33
2022/10/18 11:11:40;;;;;;;0.10;0.10;;;;;;;25.27;18.13;94562.41;5048540;28;20032;-34
2022/10/18 11:14:12;;;;;;;0.93;0.52;;;;;;;25.44;18.90;94553.50;5041698;28;20029;-33
2022/10/18 11:16:54;;;;;;;0.20;0.20;;;;;;;25.50;18.18;94553.09;5072040;28;20055;-34
2022/10/18 11:19:38;;;;;;;0.17;0.17;;;;;;;25.61;18.10;94549.47;5054568;28;20456;-33
2022/10/18 11:22:06;;;;;;;0.65;0.65;;;;;;;25.99;18.02;94542.38;5072194;28;20020;-33
2022/10/18 11:24:33;;;;;;;0.30;0.30;;;;;;;26.72;16.95;94538.47;5050847;28;20410;-33
2022/10/18 11:27:38;;;;;;;0.32;0.22;;;;;;;26.92;16.67;94528.91;5054527;28;20052;-33
2022/10/18 11:30:39;;;;;;;0.10;0.10;;;;;;;27.06;16.65;94528.88;5033882;28;20036;-34
2022/10/18 11:33:43;;;;;;;1.35;0.68;;;;;;;27.03;17.56;94516.69;5041767;28;20494;-34
2022/10/18 11:36:20;;;;;;;0.52;0.40;;;;;;;27.24;16.77;94507.09;5025757;28;20048;-33
2022/10/18 11:38:51;;;;;;;0.30;0.30;;;;;;;27.48;16.81;94501.88;5071752;28;20029;-33
2022/10/18 11:41:28;;;;;;;0.43;0.43;;;;;;;27.63;16.40;94495.50;5068988;28;20025;-33
2022/10/18 11:43:57;;;;;;;0.28;0.28;;;;;;;27.22;16.17;94494.91;5062177;28;20045;-33
2022/10/18 11:46:41;;;;;;;0.08;0.08;;;;;;;26.91;16.08;94487.03;5049029;28;20113;-33
2022/10/18 11:49:34;;;;;;;0.10;0.10;;;;;;;26.48;16.97;94481.28;5063267;28;20116;-33
2022/10/18 11:52:18;;;;;;;0.77;0.77;;;;;;;26.27;16.18;94481.59;5066521;28;20128;-33
2022/10/18 11:55:20;;;;;;;0.35;0.32;;;;;;;25.72;16.49;94475.13;5065410;28;20082;-34